createdAt,value
2019-04-25T00:01:58.709Z,30.91
2019-04-25T00:04:32.346Z,31.25
2019-04-25T00:07:03.106Z,31.79
2019-04-25T00:09:35.571Z,32.16
2019-04-25T00:12:07.107Z,32.08
2019-04-25T00:14:38.119Z,32.23
2019-04-25T00:17:09.172Z,32.21
2019-04-25T00:19:41.790Z,32.50
2019-04-25T00:22:14.055Z,32.38
2019-04-25T00:24:49.520Z,32.17
2019-04-25T00:27:21.614Z,32.22
2019-04-25T00:29:57.661Z,32.56
2019-04-25T00:32:28.250Z,32.23
2019-04-25T00:35:01.903Z,32.35
2019-04-25T00:37:32.796Z,32.41
2019-04-25T00:40:03.994Z,32.60
2019-04-25T00:42:38.938Z,32.45
2019-04-25T00:45:09.600Z,32.11
2019-04-25T00:47:42.442Z,32.93
2019-04-25T00:50:12.667Z,32.83
2019-04-25T00:52:43.907Z,32.51
2019-04-25T00:55:26.057Z,32.33
2019-04-25T00:57:49.563Z,33.03
2019-04-25T01:00:38.117Z,33.11
2019-04-25T01:03:11.528Z,33.21
2019-04-25T01:05:44.351Z,33.83
2019-04-25T01:08:15.470Z,33.67
2019-04-25T01:10:48.718Z,34.06
2019-04-25T01:13:19.303Z,35.06
2019-04-25T01:15:52.194Z,34.74
2019-04-25T01:18:23.221Z,34.95
2019-04-25T01:20:55.415Z,34.51
2019-04-25T01:23:26.154Z,34.30
2019-04-25T01:25:56.847Z,34.58
2019-04-25T01:28:27.670Z,34.66
2019-04-25T01:30:59.075Z,34.72
2019-04-25T01:33:29.761Z,34.57
2019-04-25T01:36:03.556Z,34.67
2019-04-25T01:38:38.895Z,34.31
2019-04-25T01:41:11.112Z,34.27
2019-04-25T01:43:57.199Z,34.23
2019-04-25T01:46:26.366Z,34.57
2019-04-25T01:48:58.719Z,34.32
2019-04-25T01:51:33.893Z,34.96
2019-04-25T01:54:04.613Z,34.06
2019-04-25T01:56:35.370Z,34.55
2019-04-25T01:59:06.379Z,34.65
2019-04-25T02:01:38.438Z,34.83
2019-04-25T02:04:09.180Z,34.71
2019-04-25T02:06:41.015Z,34.75
2019-04-25T02:09:13.659Z,34.79
2019-04-25T02:11:45.979Z,35.11
2019-04-25T02:14:16.847Z,35.94
2019-04-25T02:16:50.538Z,36.04
2019-04-25T02:19:21.584Z,36.47
2019-04-25T02:21:54.498Z,36.68
2019-04-25T02:24:24.670Z,36.95
2019-04-25T02:26:57.262Z,37.41
2019-04-25T02:29:27.967Z,37.32
2019-04-25T02:32:02.164Z,37.75
2019-04-25T02:34:31.101Z,37.53
2019-04-25T02:37:05.598Z,37.72
2019-04-25T02:39:37.239Z,37.96
2019-04-25T02:42:08.627Z,37.92
2019-04-25T02:44:41.247Z,38.47
2019-04-25T02:47:16.338Z,38.86
2019-04-25T02:50:09.073Z,38.97
2019-04-25T02:52:39.559Z,39.25
2019-04-25T02:55:11.093Z,39.18
2019-04-25T02:57:44.729Z,39.48
2019-04-25T03:00:45.473Z,40.05
2019-04-25T03:03:01.210Z,40.05
2019-04-25T03:05:32.029Z,40.21
2019-04-25T03:08:07.943Z,40.22
2019-04-25T03:10:35.227Z,40.20
2019-04-25T03:13:12.020Z,40.28
2019-04-25T03:15:45.190Z,40.16
2019-04-25T03:18:17.092Z,40.24
2019-04-25T03:20:49.250Z,40.21
2019-04-25T03:23:35.405Z,40.50
2019-04-25T03:26:07.406Z,40.37
2019-04-25T03:28:38.221Z,40.51
2019-04-25T03:31:15.187Z,40.94
2019-04-25T03:33:41.271Z,40.78
2019-04-25T03:36:14.252Z,41.01
2019-04-25T03:38:44.343Z,41.39
2019-04-25T03:41:15.451Z,41.02
2019-04-25T03:43:46.083Z,40.34
2019-04-25T03:46:16.714Z,39.50
2019-04-25T03:48:47.545Z,38.38
2019-04-25T03:51:18.278Z,38.05
2019-04-25T03:53:49.035Z,36.99
2019-04-25T03:56:19.955Z,37.02
2019-04-25T03:58:54.051Z,35.80
2019-04-25T04:01:25.630Z,35.43
2019-04-25T04:03:59.000Z,35.71
2019-04-25T04:06:29.684Z,34.14
2019-04-25T04:09:04.663Z,34.41
2019-04-25T04:11:39.130Z,34.28
2019-04-25T04:14:18.043Z,33.07
2019-04-25T04:17:06.478Z,33.39
2019-04-25T04:19:39.312Z,33.85
2019-04-25T04:22:21.457Z,32.80
2019-04-25T04:24:57.354Z,33.49
2019-04-25T04:27:27.969Z,32.98
2019-04-25T04:30:01.808Z,34.15
2019-04-25T04:32:34.774Z,34.50
2019-04-25T04:35:07.309Z,32.95
2019-04-25T04:37:39.511Z,33.28
2019-04-25T04:40:10.207Z,32.79
2019-04-25T04:42:40.810Z,31.46
2019-04-25T04:45:12.405Z,31.75
2019-04-25T04:47:43.845Z,30.73
2019-04-25T04:50:15.405Z,29.58
2019-04-25T04:52:46.275Z,29.81
2019-04-25T04:55:19.759Z,30.12
2019-04-25T04:57:50.594Z,29.81
2019-04-25T05:00:24.652Z,29.98
2019-04-25T05:02:57.012Z,29.41
2019-04-25T05:05:35.645Z,30.08
2019-04-25T05:08:08.628Z,27.89
2019-04-25T05:10:39.694Z,29.03
2019-04-25T05:13:15.761Z,28.40
2019-04-25T05:15:50.628Z,27.97
2019-04-25T05:18:34.556Z,28.26
2019-04-25T05:20:57.593Z,27.71
2019-04-25T05:23:28.506Z,28.01
2019-04-25T05:25:59.206Z,27.85
2019-04-25T05:28:33.344Z,27.77
2019-04-25T05:31:09.957Z,26.66
2019-04-25T05:33:40.578Z,27.43
2019-04-25T05:36:11.636Z,27.24
2019-04-25T05:38:45.895Z,27.05
2019-04-25T05:41:21.003Z,26.74
2019-04-25T05:43:51.795Z,26.66
2019-04-25T05:46:23.700Z,27.04
2019-04-25T05:48:56.367Z,26.70
2019-04-25T05:51:26.925Z,26.85
2019-04-25T05:53:57.631Z,27.80
2019-04-25T05:56:28.333Z,26.93
2019-04-25T05:58:59.149Z,27.26
2019-04-25T06:01:31.608Z,27.35
2019-04-25T06:04:05.166Z,28.07
2019-04-25T06:06:36.769Z,27.63
2019-04-25T06:09:28.204Z,26.87
2019-04-25T06:12:15.768Z,26.87
2019-04-25T06:14:48.026Z,26.91
2019-04-25T06:17:38.620Z,27.09
2019-04-25T06:20:13.602Z,27.86
2019-04-25T06:22:48.812Z,27.10
2019-04-25T06:25:24.085Z,27.59
2019-04-25T06:27:57.233Z,27.20
2019-04-25T06:30:30.494Z,27.35
2019-04-25T06:33:01.387Z,27.02
2019-04-25T06:35:35.851Z,27.40
2019-04-25T06:38:06.829Z,28.12
2019-04-25T06:40:37.568Z,29.09
2019-04-25T06:43:08.268Z,28.96
2019-04-25T06:45:56.628Z,29.58
2019-04-25T06:48:35.200Z,30.51
2019-04-25T06:51:08.916Z,29.86
2019-04-25T06:53:39.635Z,29.64
2019-04-25T06:56:10.236Z,29.65
2019-04-25T06:58:40.952Z,29.02
2019-04-25T07:01:13.475Z,29.57
2019-04-25T07:03:44.509Z,28.66
2019-04-25T07:06:15.192Z,28.01
2019-04-25T07:08:45.941Z,27.01
2019-04-25T07:11:16.668Z,26.04
2019-04-25T07:13:47.391Z,27.21
2019-04-25T07:16:18.065Z,26.75
2019-04-25T07:18:48.784Z,26.49
2019-04-25T07:21:19.414Z,26.83
2019-04-25T07:23:50.207Z,27.81
2019-04-25T07:26:45.240Z,28.04
2019-04-25T07:29:24.825Z,27.47
2019-04-25T07:32:12.162Z,27.52
2019-04-25T07:34:44.324Z,27.43
2019-04-25T07:37:16.777Z,27.27
2019-04-25T07:39:47.368Z,27.35
2019-04-25T07:42:19.646Z,27.73
2019-04-25T07:44:53.440Z,27.81
2019-04-25T07:47:24.756Z,27.23
2019-04-25T07:49:55.602Z,27.59
2019-04-25T07:52:27.074Z,27.28
2019-04-25T07:54:57.857Z,27.82
2019-04-25T07:57:29.149Z,27.93
2019-04-25T07:59:59.948Z,27.37
2019-04-25T08:02:30.632Z,26.74
2019-04-25T08:05:04.269Z,27.83
2019-04-25T08:07:36.032Z,27.40
2019-04-25T08:10:09.220Z,26.69
2019-04-25T08:12:40.475Z,27.45
2019-04-25T08:15:15.653Z,27.76
2019-04-25T08:17:56.645Z,27.24
2019-04-25T08:20:28.427Z,27.15
2019-04-25T08:23:01.929Z,27.38
2019-04-25T08:25:33.457Z,27.54
2019-04-25T08:28:05.133Z,27.02
2019-04-25T08:30:36.757Z,27.84
2019-04-25T08:33:08.191Z,27.75
2019-04-25T08:35:42.570Z,25.74
2019-04-25T08:38:13.995Z,26.94
2019-04-25T08:40:44.727Z,26.37
2019-04-25T08:43:15.351Z,25.11
2019-04-25T08:45:46.079Z,25.58
2019-04-25T08:48:19.408Z,25.14
2019-04-25T08:51:08.990Z,25.55
2019-04-25T08:53:47.140Z,25.31
2019-04-25T08:56:22.097Z,24.61
2019-04-25T08:59:05.481Z,24.51
2019-04-25T09:01:48.905Z,24.75
2019-04-25T09:04:21.273Z,24.31
2019-04-25T09:06:54.990Z,25.22
2019-04-25T09:09:25.740Z,23.56
2019-04-25T09:11:56.597Z,23.34
2019-04-25T09:14:27.534Z,24.02
2019-04-25T09:16:59.606Z,23.82
2019-04-25T09:19:36.202Z,23.04
2019-04-25T09:22:07.571Z,22.27
2019-04-25T09:24:45.371Z,22.62
2019-04-25T09:27:16.162Z,23.47
2019-04-25T09:29:47.557Z,21.82
2019-04-25T09:32:18.310Z,22.37
2019-04-25T09:34:48.955Z,22.54
2019-04-25T09:37:21.668Z,22.66
2019-04-25T09:40:04.215Z,22.55
2019-04-25T09:42:36.996Z,22.08
2019-04-25T09:45:17.052Z,21.92
2019-04-25T09:47:49.431Z,21.95
2019-04-25T09:50:40.035Z,22.58
2019-04-25T09:53:21.885Z,21.46
2019-04-25T09:55:48.298Z,21.81
2019-04-25T09:58:29.647Z,20.93
2019-04-25T10:01:02.098Z,20.53
2019-04-25T10:03:33.402Z,20.66
2019-04-25T10:06:04.389Z,20.99
2019-04-25T10:08:34.977Z,21.15
2019-04-25T10:11:06.368Z,21.77
2019-04-25T10:13:37.594Z,20.86
2019-04-25T10:16:13.093Z,20.19
2019-04-25T10:18:44.710Z,21.00
2019-04-25T10:21:16.387Z,21.89
2019-04-25T10:23:47.031Z,21.74
2019-04-25T10:26:19.615Z,20.82
2019-04-25T10:28:50.451Z,21.67
2019-04-25T10:31:21.074Z,21.46
2019-04-25T10:33:53.469Z,21.22
2019-04-25T10:36:24.715Z,21.17
2019-04-25T10:39:07.671Z,21.02
2019-04-25T10:41:27.821Z,21.16
2019-04-25T10:43:58.458Z,20.77
2019-04-25T10:46:29.727Z,20.70
2019-04-25T10:49:00.462Z,21.24
2019-04-25T10:51:31.079Z,20.93
2019-04-25T10:54:01.804Z,21.16
2019-04-25T10:56:33.514Z,21.19
2019-04-25T10:59:04.594Z,20.81
2019-04-25T11:01:35.662Z,21.65
2019-04-25T11:04:08.607Z,21.26
2019-04-25T11:06:39.260Z,21.11
2019-04-25T11:09:13.800Z,20.92
2019-04-25T11:11:44.426Z,19.97
2019-04-25T11:14:15.174Z,21.00
2019-04-25T11:16:46.676Z,20.86
2019-04-25T11:19:17.648Z,20.71
2019-04-25T11:21:48.327Z,21.05
2019-04-25T11:24:18.980Z,21.30
2019-04-25T11:26:51.440Z,20.77
2019-04-25T11:29:23.964Z,20.26
2019-04-25T11:31:55.066Z,21.48
2019-04-25T11:34:26.013Z,21.91
2019-04-25T11:36:57.670Z,21.03
2019-04-25T11:39:33.031Z,20.38
2019-04-25T11:42:04.451Z,20.67
2019-04-25T11:44:35.219Z,21.04
2019-04-25T11:47:07.583Z,21.54
2019-04-25T11:49:38.482Z,20.21
2019-04-25T11:52:10.343Z,20.95
2019-04-25T11:54:41.144Z,20.99
2019-04-25T11:57:11.744Z,21.37
2019-04-25T11:59:44.597Z,21.53
2019-04-25T12:02:14.824Z,21.18
2019-04-25T12:04:47.748Z,20.50
2019-04-25T12:07:18.543Z,20.40
2019-04-25T12:09:49.960Z,21.12
2019-04-25T12:12:20.835Z,21.05
2019-04-25T12:14:54.993Z,20.92
2019-04-25T12:17:27.064Z,20.75
2019-04-25T12:19:57.845Z,21.24
2019-04-25T12:22:28.486Z,21.14
2019-04-25T12:25:00.588Z,21.76
2019-04-25T12:27:31.164Z,21.29
2019-04-25T12:30:03.838Z,21.23
2019-04-25T12:32:35.286Z,20.82
2019-04-25T12:35:07.317Z,20.41
2019-04-25T12:37:37.947Z,20.93
2019-04-25T12:40:10.591Z,20.77
2019-04-25T12:42:41.334Z,20.55
2019-04-25T12:45:20.965Z,20.92
2019-04-25T12:47:59.435Z,21.03
2019-04-25T12:50:30.229Z,20.94
2019-04-25T12:53:00.961Z,20.81
2019-04-25T12:55:31.690Z,20.73
2019-04-25T12:58:03.507Z,21.35
2019-04-25T13:00:47.873Z,21.40
2019-04-25T13:03:14.705Z,20.98
2019-04-25T13:05:45.295Z,21.43
2019-04-25T13:08:20.264Z,21.69
2019-04-25T13:10:50.933Z,21.52
2019-04-25T13:13:24.713Z,21.16
2019-04-25T13:15:56.748Z,21.64
2019-04-25T13:18:30.353Z,22.02
2019-04-25T13:21:03.764Z,21.83
2019-04-25T13:23:36.199Z,21.10
2019-04-25T13:26:07.250Z,22.13
2019-04-25T13:28:57.711Z,20.98
2019-04-25T13:31:49.964Z,20.92
2019-04-25T13:34:35.211Z,20.72
2019-04-25T13:36:54.691Z,20.86
2019-04-25T13:39:26.510Z,20.95
2019-04-25T13:41:59.607Z,21.01
2019-04-25T13:44:30.538Z,21.08
2019-04-25T13:47:04.083Z,21.03
2019-04-25T13:49:34.992Z,21.12
2019-04-25T13:52:09.083Z,21.51
2019-04-25T13:54:39.767Z,21.39
2019-04-25T13:57:10.459Z,21.89
2019-04-25T13:59:45.875Z,21.25
2019-04-25T14:02:16.893Z,21.54
2019-04-25T14:04:50.316Z,21.72
2019-04-25T14:07:21.847Z,22.23
2019-04-25T14:09:53.223Z,22.19
2019-04-25T14:12:26.850Z,22.65
2019-04-25T14:14:59.403Z,22.18
2019-04-25T14:17:38.197Z,22.80
2019-04-25T14:20:24.871Z,23.11
2019-04-25T14:22:55.543Z,23.59
2019-04-25T14:25:27.658Z,21.75
2019-04-25T14:28:00.672Z,22.51
2019-04-25T14:30:32.617Z,22.93
2019-04-25T14:33:04.280Z,22.36
2019-04-25T14:35:35.055Z,22.51
2019-04-25T14:38:08.967Z,22.33
2019-04-25T14:40:42.171Z,21.96
2019-04-25T14:43:12.314Z,22.50
2019-04-25T14:45:45.098Z,22.87
2019-04-25T14:48:15.471Z,22.86
2019-04-25T14:50:47.579Z,22.88
2019-04-25T14:53:18.344Z,23.32
2019-04-25T14:56:06.932Z,23.42
2019-04-25T14:58:39.543Z,23.69
2019-04-25T15:02:06.963Z,24.14
2019-04-25T15:04:40.737Z,24.12
2019-04-25T15:07:13.266Z,24.28
2019-04-25T15:09:45.701Z,26.40
2019-04-25T15:12:17.363Z,24.79
2019-04-25T15:14:48.213Z,24.10
2019-04-25T15:17:18.943Z,24.99
2019-04-25T15:19:49.961Z,25.00
2019-04-25T15:22:21.715Z,24.43
2019-04-25T15:24:52.576Z,24.16
2019-04-25T15:27:24.100Z,24.25
2019-04-25T15:29:55.666Z,24.49
2019-04-25T15:32:31.215Z,24.88
2019-04-25T15:35:06.210Z,25.33
2019-04-25T15:37:45.277Z,25.24
2019-04-25T15:40:25.256Z,26.88
2019-04-25T15:43:17.071Z,26.92
2019-04-25T15:46:07.192Z,25.56
2019-04-25T15:48:40.871Z,26.05
2019-04-25T15:51:14.351Z,28.62
2019-04-25T15:53:45.000Z,28.04
2019-04-25T15:56:15.658Z,28.05
2019-04-25T15:58:49.501Z,28.78
2019-04-25T16:01:23.114Z,27.22
2019-04-25T16:03:54.266Z,27.08
2019-04-25T16:06:25.549Z,27.11
2019-04-25T16:08:59.280Z,28.64
2019-04-25T16:11:33.458Z,27.04
2019-04-25T16:14:04.910Z,28.29
2019-04-25T16:16:35.957Z,27.97
2019-04-25T16:19:06.624Z,27.95
2019-04-25T16:21:38.931Z,27.95
2019-04-25T16:24:12.849Z,27.79
2019-04-25T16:26:43.661Z,28.15
2019-04-25T16:29:15.907Z,27.77
2019-04-25T16:31:49.421Z,28.03
2019-04-25T16:34:21.650Z,27.66
2019-04-25T16:36:57.208Z,27.86
2019-04-25T16:39:30.935Z,28.18
2019-04-25T16:42:05.973Z,28.36
2019-04-25T16:44:40.162Z,28.69
2019-04-25T16:47:31.205Z,29.53
2019-04-25T16:50:02.005Z,28.93
2019-04-25T16:52:33.842Z,29.17
2019-04-25T16:55:09.273Z,28.75
2019-04-25T16:57:42.135Z,29.25
2019-04-25T17:00:30.890Z,28.36
2019-04-25T17:03:04.657Z,28.27
2019-04-25T17:05:35.832Z,28.26
2019-04-25T17:08:10.118Z,30.23
2019-04-25T17:10:46.348Z,28.10
2019-04-25T17:13:20.225Z,28.80
2019-04-25T17:16:04.441Z,28.16
2019-04-25T17:18:42.353Z,28.23
2019-04-25T17:21:15.722Z,28.19
2019-04-25T17:23:47.964Z,28.23
2019-04-25T17:26:19.494Z,27.94
2019-04-25T17:28:56.272Z,28.20
2019-04-25T17:31:48.532Z,27.94
2019-04-25T17:34:21.540Z,28.12
2019-04-25T17:36:53.998Z,28.15
2019-04-25T17:39:26.678Z,28.17
2019-04-25T17:42:01.393Z,28.84
2019-04-25T17:44:34.190Z,29.81
2019-04-25T17:47:06.582Z,30.92
2019-04-25T17:49:37.449Z,31.27
2019-04-25T17:52:09.516Z,32.10
2019-04-25T17:54:41.037Z,32.42
2019-04-25T17:57:11.825Z,33.17
2019-04-25T17:59:43.397Z,34.05
2019-04-25T18:02:14.320Z,34.56
2019-04-25T18:04:46.627Z,34.90
2019-04-25T18:07:18.820Z,34.78
2019-04-25T18:09:49.530Z,35.10
2019-04-25T18:12:23.605Z,35.54
2019-04-25T18:14:55.974Z,35.31
2019-04-25T18:17:26.673Z,34.46
2019-04-25T18:20:02.020Z,34.90
2019-04-25T18:22:46.288Z,34.56
2019-04-25T18:25:37.353Z,34.25
2019-04-25T18:28:15.510Z,35.56
2019-04-25T18:30:46.930Z,35.24
2019-04-25T18:33:19.287Z,35.61
2019-04-25T18:35:51.720Z,35.11
2019-04-25T18:38:27.061Z,35.72
2019-04-25T18:41:11.639Z,35.38
2019-04-25T18:43:44.866Z,35.55
2019-04-25T18:46:23.632Z,35.60
2019-04-25T18:48:56.900Z,35.22
2019-04-25T18:51:29.486Z,35.76
2019-04-25T18:54:32.590Z,34.44
2019-04-25T18:57:14.329Z,34.60
2019-04-25T19:00:00.375Z,34.05
2019-04-25T19:02:43.915Z,34.71
2019-04-25T19:05:34.012Z,35.42
2019-04-25T19:08:09.986Z,34.40
2019-04-25T19:11:00.196Z,35.57
2019-04-25T19:13:38.812Z,35.04
2019-04-25T19:16:28.718Z,35.35
2019-04-25T19:19:00.875Z,35.20
2019-04-25T19:21:49.936Z,34.66
2019-04-25T19:24:40.330Z,35.17
2019-04-25T19:27:23.890Z,36.20
2019-04-25T19:29:53.697Z,36.37
2019-04-25T19:32:26.774Z,36.71
2019-04-25T19:35:02.742Z,37.54
2019-04-25T19:37:36.050Z,37.48
2019-04-25T19:40:19.364Z,37.54
2019-04-25T19:43:18.176Z,37.63
2019-04-25T19:45:53.441Z,37.48
2019-04-25T19:48:44.836Z,37.03
2019-04-25T19:51:18.183Z,36.94
2019-04-25T19:53:51.965Z,37.25
2019-04-25T19:56:25.785Z,37.50
2019-04-25T19:59:17.534Z,37.53
2019-04-25T20:01:54.823Z,37.63
2019-04-25T20:04:35.578Z,38.37
2019-04-25T20:07:17.510Z,38.14
2019-04-25T20:10:09.326Z,37.08
2019-04-25T20:12:51.314Z,36.93
2019-04-25T20:15:19.729Z,35.96
2019-04-25T20:17:54.281Z,35.15
2019-04-25T20:20:31.996Z,34.92
2019-04-25T20:23:22.569Z,34.88
2019-04-25T20:26:03.541Z,34.77
2019-04-25T20:28:42.386Z,34.58
2019-04-25T20:31:14.979Z,34.58
2019-04-25T20:34:03.178Z,34.73
2019-04-25T20:36:27.269Z,34.76
2019-04-25T20:39:02.909Z,34.83
2019-04-25T20:41:37.679Z,35.17
2019-04-25T20:44:09.964Z,35.20
2019-04-25T20:46:50.531Z,35.48
2019-04-25T20:49:35.207Z,35.04
2019-04-25T20:52:12.734Z,35.09
2019-04-25T20:54:47.505Z,34.46
2019-04-25T20:57:18.140Z,34.31
2019-04-25T20:59:52.179Z,34.10
2019-04-25T21:02:23.873Z,33.84
2019-04-25T21:04:54.511Z,33.85
2019-04-25T21:07:26.287Z,34.53
2019-04-25T21:10:01.135Z,33.83
2019-04-25T21:12:35.139Z,34.01
2019-04-25T21:15:25.671Z,35.11
2019-04-25T21:17:58.872Z,34.69
2019-04-25T21:20:30.958Z,34.14
2019-04-25T21:23:05.760Z,34.57
2019-04-25T21:25:36.536Z,34.85
2019-04-25T21:28:09.466Z,35.23
2019-04-25T21:30:42.935Z,35.37
2019-04-25T21:33:14.018Z,35.31
2019-04-25T21:35:44.889Z,34.94
2019-04-25T21:38:18.241Z,34.51
2019-04-25T21:40:55.735Z,34.80
2019-04-25T21:43:28.306Z,34.85
2019-04-25T21:46:00.616Z,35.16
2019-04-25T21:48:34.929Z,35.19
2019-04-25T21:51:25.432Z,34.98
2019-04-25T21:53:57.659Z,34.78
2019-04-25T21:56:32.276Z,35.00
2019-04-25T21:59:04.139Z,35.25
2019-04-25T22:01:40.621Z,35.08
2019-04-25T22:04:19.330Z,34.88
2019-04-25T22:06:52.578Z,35.09
2019-04-25T22:09:28.732Z,35.14
2019-04-25T22:12:01.152Z,35.27
2019-04-25T22:14:32.974Z,35.04
2019-04-25T22:17:06.923Z,35.28
2019-04-25T22:19:42.442Z,35.79
2019-04-25T22:22:14.411Z,35.58
2019-04-25T22:24:45.108Z,35.38
2019-04-25T22:27:18.949Z,35.31
2019-04-25T22:29:51.691Z,35.59
2019-04-25T22:32:25.414Z,35.75
2019-04-25T22:35:13.209Z,35.71
2019-04-25T22:37:45.708Z,35.73
2019-04-25T22:40:16.357Z,36.28
2019-04-25T22:42:48.680Z,36.38
2019-04-25T22:45:21.870Z,36.10
2019-04-25T22:47:53.838Z,36.03
2019-04-25T22:50:24.811Z,36.44
2019-04-25T22:52:55.568Z,36.29
2019-04-25T22:55:29.053Z,36.37
2019-04-25T22:57:59.775Z,35.98
2019-04-25T23:00:35.244Z,36.08
2019-04-25T23:03:07.717Z,36.10
2019-04-25T23:05:43.200Z,36.11
2019-04-25T23:08:14.297Z,36.17
2019-04-25T23:10:45.502Z,36.67
2019-04-25T23:13:16.151Z,36.12
2019-04-25T23:15:46.801Z,36.28
2019-04-25T23:18:18.252Z,35.88
2019-04-25T23:20:48.987Z,36.35
2019-04-25T23:23:20.147Z,36.31
2019-04-25T23:25:55.631Z,36.52
2019-04-25T23:28:38.814Z,36.36
2019-04-25T23:31:12.564Z,36.51
2019-04-25T23:33:46.330Z,36.80
2019-04-25T23:36:20.422Z,37.04
2019-04-25T23:38:54.369Z,36.37
2019-04-25T23:41:28.278Z,36.18
2019-04-25T23:44:00.641Z,36.06
2019-04-25T23:46:33.891Z,36.57
2019-04-25T23:49:07.792Z,36.94
2019-04-25T23:51:43.908Z,36.83
2019-04-25T23:54:15.948Z,37.51
2019-04-25T23:56:47.617Z,37.17
2019-04-25T23:59:21.473Z,37.37
